Time;durP1;ratioP1;P1;durP2;ratioP2;P2;SDS_P1;SDS_P2;PMS_P1;PMS_P2;Temp;Humidity;BMP_temperature;BMP_pressure;BME280_temperature;BME280_humidity;BME280_pressure;Samples;Min_cycle;Max_cycle;Signal;HPM_P1;HPM_P2
2022/10/15 00:00:33;;;;;;;0.00;0.00;;;;;;;16.41;75.54;97295.09;8414713;28;20315;-78
2022/10/15 00:04:36;;;;;;;0.00;0.00;;;;;;;16.41;76.24;97292.47;8415117;28;20288;-77
2022/10/15 00:08:39;;;;;;;0.00;0.00;;;;;;;16.44;75.14;97287.00;8415069;28;20234;-77
2022/10/15 00:12:42;;;;;;;0.00;0.00;;;;;;;16.25;76.76;97286.81;8414906;28;20238;-77
2022/10/15 00:16:46;;;;;;;0.00;0.00;;;;;;;16.24;76.82;97280.75;8415139;28;20524;-78
2022/10/15 00:20:49;;;;;;;0.00;0.00;;;;;;;16.32;76.80;97288.81;8415003;28;20237;-78
2022/10/15 00:24:52;;;;;;;0.00;0.00;;;;;;;16.00;78.36;97278.28;8414644;28;20235;-78
2022/10/15 00:28:56;;;;;;;0.03;0.03;;;;;;;15.94;78.67;97265.69;8414765;28;20231;-78
2022/10/15 00:33:01;;;;;;;0.00;0.00;;;;;;;16.17;77.68;97271.75;8415050;28;20289;-77
2022/10/15 00:37:04;;;;;;;0.00;0.00;;;;;;;16.29;76.43;97269.94;8414654;28;20239;-78
2022/10/15 00:41:08;;;;;;;0.00;0.00;;;;;;;16.22;77.07;97269.56;8414265;28;20625;-78
2022/10/15 00:45:14;;;;;;;0.00;0.00;;;;;;;16.22;76.49;97251.28;8414352;28;20222;-78
2022/10/15 00:49:19;;;;;;;0.00;0.00;;;;;;;16.22;76.99;97246.06;8413805;28;20226;-77
2022/10/15 00:53:22;;;;;;;0.00;0.00;;;;;;;16.34;76.30;97259.97;8414024;28;20230;-77
2022/10/15 00:57:26;;;;;;;0.00;0.00;;;;;;;16.30;76.23;97246.31;8413972;28;20233;-77
2022/10/15 01:01:28;;;;;;;0.00;0.00;;;;;;;16.45;75.65;97241.66;8413716;28;20234;-77
2022/10/15 01:05:33;;;;;;;0.00;0.00;;;;;;;16.52;74.96;97228.91;8413688;28;22174;-77
2022/10/15 01:09:36;;;;;;;0.00;0.00;;;;;;;16.50;75.07;97231.66;8413744;28;20395;-77
2022/10/15 01:13:47;;;;;;;0.00;0.00;;;;;;;16.49;75.15;97232.63;8413849;28;20243;-77
2022/10/15 01:17:54;;;;;;;0.00;0.00;;;;;;;16.33;76.63;97229.56;8413682;28;20234;-77
2022/10/15 01:22:03;;;;;;;0.00;0.00;;;;;;;16.42;75.91;97216.56;8413195;28;20222;-77
2022/10/15 01:26:20;;;;;;;0.00;0.00;;;;;;;16.48;75.51;97220.47;8413036;28;20235;-77
2022/10/15 01:30:26;;;;;;;0.00;0.00;;;;;;;16.53;75.48;97217.53;8412648;28;20222;-77
2022/10/15 01:34:33;;;;;;;0.00;0.00;;;;;;;16.53;75.28;97214.91;8412766;28;20234;-77
2022/10/15 01:38:45;;;;;;;0.00;0.00;;;;;;;16.55;74.81;97215.59;8412656;28;20272;-77
2022/10/15 01:42:53;;;;;;;0.00;0.00;;;;;;;16.49;75.47;97203.03;8412740;28;20230;-77
2022/10/15 01:47:00;;;;;;;0.00;0.00;;;;;;;16.41;76.11;97196.66;8412902;28;20417;-77
2022/10/15 01:51:05;;;;;;;0.00;0.00;;;;;;;16.45;76.30;97196.38;8412807;28;20234;-77
2022/10/15 01:55:11;;;;;;;0.00;0.00;;;;;;;16.35;77.14;97196.28;8412749;28;20300;-76
2022/10/15 01:59:14;;;;;;;0.00;0.00;;;;;;;16.45;76.47;97194.63;8411525;28;20245;-75
2022/10/15 02:03:18;;;;;;;0.00;0.00;;;;;;;16.53;75.54;97186.16;8412207;28;20234;-76
2022/10/15 02:07:29;;;;;;;0.00;0.00;;;;;;;16.49;75.81;97182.97;8412074;28;20231;-76
2022/10/15 02:11:38;;;;;;;0.00;0.00;;;;;;;16.51;75.71;97185.44;8412259;28;20264;-76
2022/10/15 02:15:45;;;;;;;0.00;0.00;;;;;;;16.54;75.62;97177.34;8412004;28;20231;-77
2022/10/15 02:19:52;;;;;;;0.00;0.00;;;;;;;16.60;75.43;97176.84;8412349;28;20227;-77
2022/10/15 02:23:58;;;;;;;0.00;0.00;;;;;;;16.57;75.41;97171.88;8418443;28;20475;-77
2022/10/15 02:28:01;;;;;;;0.00;0.00;;;;;;;16.57;75.90;97177.94;8418179;28;20411;-77
2022/10/15 02:32:06;;;;;;;0.00;0.00;;;;;;;16.52;76.53;97168.81;8418259;28;20257;-77
2022/10/15 02:36:10;;;;;;;0.07;0.07;;;;;;;16.53;76.05;97168.69;8418329;28;20276;-77
2022/10/15 02:40:13;;;;;;;0.00;0.00;;;;;;;16.57;75.99;97161.44;8417763;28;20226;-76
2022/10/15 02:44:16;;;;;;;0.00;0.00;;;;;;;16.59;75.92;97160.34;8417388;28;20230;-76
2022/10/15 02:48:19;;;;;;;0.00;0.00;;;;;;;16.61;75.95;97157.59;8417509;28;20295;-76
2022/10/15 02:52:23;;;;;;;0.00;0.00;;;;;;;16.64;76.12;97159.13;8417386;28;20242;-76
2022/10/15 02:56:27;;;;;;;0.00;0.00;;;;;;;16.53;76.43;97149.56;8417383;28;20238;-76
2022/10/15 03:00:29;;;;;;;0.00;0.00;;;;;;;16.56;76.25;97152.75;8417134;28;20223;-76
2022/10/15 03:04:32;;;;;;;0.00;0.00;;;;;;;16.60;76.07;97148.94;8417376;28;20238;-76
2022/10/15 03:08:36;;;;;;;0.00;0.00;;;;;;;16.53;76.80;97139.13;8417003;28;20230;-77
2022/10/15 03:12:43;;;;;;;0.00;0.00;;;;;;;16.51;76.27;97141.03;8416804;28;20227;-77
2022/10/15 03:16:46;;;;;;;0.00;0.00;;;;;;;16.51;76.96;97141.03;8417003;28;20297;-76
2022/10/15 03:20:53;;;;;;;0.00;0.00;;;;;;;16.50;76.77;97137.56;8416948;28;20253;-77
2022/10/15 03:24:58;;;;;;;0.00;0.00;;;;;;;16.58;76.05;97129.09;8416650;28;20231;-77
2022/10/15 03:29:00;;;;;;;0.00;0.00;;;;;;;16.48;76.86;97129.00;8416506;28;20510;-76
2022/10/15 03:33:03;;;;;;;0.00;0.00;;;;;;;16.36;77.83;97133.47;8415361;28;20491;-77
2022/10/15 03:37:06;;;;;;;0.00;0.00;;;;;;;16.44;77.22;97138.06;8416029;28;20230;-77
2022/10/15 03:41:10;;;;;;;0.00;0.00;;;;;;;16.46;76.96;97138.78;8416219;28;20219;-77
2022/10/15 03:45:14;;;;;;;0.00;0.00;;;;;;;16.58;76.24;97134.31;8416032;28;20242;-77
2022/10/15 03:49:17;;;;;;;0.00;0.00;;;;;;;16.60;75.84;97141.09;8415536;28;20231;-76
2022/10/15 03:53:19;;;;;;;0.00;0.00;;;;;;;16.49;76.96;97137.72;8415878;28;20288;-77
2022/10/15 03:57:24;;;;;;;0.00;0.00;;;;;;;16.53;76.25;97144.34;8415518;28;20440;-77
2022/10/15 04:01:27;;;;;;;0.00;0.00;;;;;;;16.55;75.87;97140.63;8415543;28;20452;-77
2022/10/15 04:05:30;;;;;;;0.00;0.00;;;;;;;16.54;76.10;97146.81;8415307;28;20296;-77
2022/10/15 04:09:33;;;;;;;0.00;0.00;;;;;;;16.66;75.92;97131.06;8415041;28;20238;-77
2022/10/15 04:13:37;;;;;;;0.00;0.00;;;;;;;16.56;76.62;97144.06;8414723;28;20243;-77
2022/10/15 04:17:40;;;;;;;0.00;0.00;;;;;;;16.65;75.73;97140.72;8414962;28;20237;-77
2022/10/15 04:21:43;;;;;;;0.00;0.00;;;;;;;16.68;75.62;97147.47;8414760;28;20340;-77
2022/10/15 04:25:46;;;;;;;0.00;0.00;;;;;;;16.72;75.47;97141.03;8414659;28;20248;-78
2022/10/15 04:29:50;;;;;;;0.00;0.00;;;;;;;16.67;75.57;97137.97;8414547;28;20324;-77
2022/10/15 04:33:53;;;;;;;0.00;0.00;;;;;;;16.69;75.66;97144.72;8414146;28;20265;-78
2022/10/15 04:37:57;;;;;;;0.00;0.00;;;;;;;16.66;76.00;97145.00;8414588;28;20230;-77
2022/10/15 04:42:00;;;;;;;0.00;0.00;;;;;;;16.69;75.69;97143.91;8414290;28;20227;-77
2022/10/15 04:46:05;;;;;;;0.00;0.00;;;;;;;16.64;76.10;97151.28;8414209;28;20401;-77
2022/10/15 04:50:09;;;;;;;0.00;0.00;;;;;;;16.71;75.68;97149.84;8414882;28;20234;-76
2022/10/15 04:54:12;;;;;;;0.00;0.00;;;;;;;16.62;76.66;97156.66;8414589;28;20230;-77
2022/10/15 04:58:15;;;;;;;0.00;0.00;;;;;;;16.57;76.83;97145.75;8414418;28;20223;-76
2022/10/15 05:02:19;;;;;;;0.00;0.00;;;;;;;16.70;75.83;97140.34;8414562;28;20234;-77
2022/10/15 05:06:22;;;;;;;0.00;0.00;;;;;;;16.75;75.40;97146.84;8414385;28;20223;-77
2022/10/15 05:10:25;;;;;;;0.00;0.00;;;;;;;16.72;76.04;97143.66;8414328;28;20238;-76
2022/10/15 05:14:28;;;;;;;0.00;0.00;;;;;;;16.68;76.61;97148.31;8413351;28;20230;-77
2022/10/15 05:18:32;;;;;;;0.00;0.00;;;;;;;16.75;75.49;97154.69;8414052;28;20238;-77
2022/10/15 05:22:35;;;;;;;0.00;0.00;;;;;;;16.71;75.60;97166.34;8414152;28;20238;-77
2022/10/15 05:26:38;;;;;;;0.00;0.00;;;;;;;16.63;76.62;97163.53;8413819;28;20445;-77
2022/10/15 05:30:41;;;;;;;0.00;0.00;;;;;;;16.76;75.47;97165.97;8413859;28;20242;-77
2022/10/15 05:34:45;;;;;;;0.00;0.00;;;;;;;16.77;75.73;97173.69;8413862;28;20272;-77
2022/10/15 05:38:49;;;;;;;0.00;0.00;;;;;;;16.79;75.60;97181.41;8413839;28;20284;-77
2022/10/15 05:42:53;;;;;;;0.00;0.00;;;;;;;16.79;76.26;97181.41;8413514;28;20224;-77
2022/10/15 05:47:00;;;;;;;0.00;0.00;;;;;;;16.81;75.76;97182.09;8413757;28;20432;-76
2022/10/15 05:51:05;;;;;;;0.00;0.00;;;;;;;16.71;76.78;97194.28;8413595;28;20226;-77
2022/10/15 05:55:09;;;;;;;0.00;0.00;;;;;;;16.74;76.25;97196.66;8413615;28;20284;-76
2022/10/15 05:59:12;;;;;;;0.00;0.00;;;;;;;16.80;76.11;97188.28;8420474;28;20230;-77
2022/10/15 06:03:14;;;;;;;0.00;0.00;;;;;;;16.84;76.04;97194.13;8419920;28;20218;-77
2022/10/15 06:07:19;;;;;;;0.00;0.00;;;;;;;16.82;76.24;97196.88;8419997;28;20569;-76
2022/10/15 06:11:22;;;;;;;0.10;0.10;;;;;;;16.79;76.35;97199.69;8419866;28;20585;-77
2022/10/15 06:15:25;;;;;;;0.00;0.00;;;;;;;16.83;76.05;97205.53;8419581;28;20239;-77
2022/10/15 06:19:28;;;;;;;0.00;0.00;;;;;;;16.84;76.61;97209.81;8419529;28;20231;-77
2022/10/15 06:23:32;;;;;;;0.00;0.00;;;;;;;16.88;76.14;97219.06;8419586;28;20246;-77
2022/10/15 06:27:35;;;;;;;0.00;0.00;;;;;;;16.83;76.70;97219.47;8419294;28;20300;-77
2022/10/15 06:31:38;;;;;;;0.00;0.00;;;;;;;16.84;76.83;97230.75;8419394;28;20409;-77
2022/10/15 06:35:41;;;;;;;0.00;0.00;;;;;;;16.83;77.40;97232.53;8419102;28;20226;-77
2022/10/15 06:39:45;;;;;;;0.00;0.00;;;;;;;16.86;77.68;97244.53;8419120;28;20269;-77
2022/10/15 06:43:49;;;;;;;0.00;0.00;;;;;;;16.97;77.10;97241.88;8418714;28;20229;-81
2022/10/15 06:47:51;;;;;;;0.00;0.00;;;;;;;17.03;76.61;97259.66;8419058;28;20369;-79
2022/10/15 06:51:54;;;;;;;0.00;0.00;;;;;;;17.05;76.57;97262.16;8418672;28;20557;-76
2022/10/15 06:56:06;;;;;;;0.00;0.00;;;;;;;17.10;76.64;97265.25;8418708;28;20227;-77
2022/10/15 07:00:09;;;;;;;0.00;0.00;;;;;;;17.13;76.48;97273.63;8418646;28;20227;-77
2022/10/15 07:04:12;;;;;;;0.00;0.00;;;;;;;17.14;76.65;97271.88;8418316;28;20456;-77
2022/10/15 07:08:15;;;;;;;0.00;0.00;;;;;;;17.16;77.50;97278.63;8417440;28;20325;-78
2022/10/15 07:12:22;;;;;;;0.00;0.00;;;;;;;17.17;76.29;97279.44;8417797;28;20251;-78
2022/10/15 07:16:25;;;;;;;0.00;0.00;;;;;;;17.15;77.78;97287.44;8418147;28;20231;-78
2022/10/15 07:20:29;;;;;;;0.00;0.00;;;;;;;17.25;77.12;97289.28;8417581;28;20404;-79
2022/10/15 07:24:32;;;;;;;0.00;0.00;;;;;;;17.33;76.94;97292.13;8417645;28;20226;-78
2022/10/15 07:28:36;;;;;;;0.00;0.00;;;;;;;17.39;77.67;97302.06;8417478;28;20238;-78
2022/10/15 07:32:39;;;;;;;0.00;0.00;;;;;;;17.42;77.46;97295.75;8417443;28;20226;-79
2022/10/15 07:36:42;;;;;;;0.00;0.00;;;;;;;17.47;77.55;97307.50;8417452;28;20434;-79
2022/10/15 07:40:45;;;;;;;0.00;0.00;;;;;;;17.54;77.66;97305.22;8417402;28;20280;-79
2022/10/15 07:44:49;;;;;;;0.00;0.00;;;;;;;17.55;77.07;97312.09;8417083;28;20222;-77
2022/10/15 07:48:52;;;;;;;0.00;0.00;;;;;;;17.53;78.41;97319.25;8416802;28;20235;-78
2022/10/15 07:52:55;;;;;;;0.00;0.00;;;;;;;17.57;78.33;97323.25;8416928;28;20219;-79
2022/10/15 07:56:58;;;;;;;0.00;0.00;;;;;;;17.62;79.15;97336.81;8416822;28;20228;-79
2022/10/15 08:01:03;;;;;;;0.10;0.10;;;;;;;17.61;79.23;97337.78;8416767;28;20431;-79
2022/10/15 08:05:08;;;;;;;0.00;0.00;;;;;;;17.74;78.71;97342.81;8416401;28;20227;-78
2022/10/15 08:09:11;;;;;;;0.00;0.00;;;;;;;17.78;78.84;97352.91;8416199;28;20239;-78
2022/10/15 08:13:16;;;;;;;0.00;0.00;;;;;;;17.82;78.95;97353.50;8414501;28;20236;-79
2022/10/15 08:17:20;;;;;;;0.00;0.00;;;;;;;17.75;80.41;97358.41;8415958;28;20224;-78
2022/10/15 08:21:23;;;;;;;0.00;0.00;;;;;;;17.74;80.15;97358.53;8415312;28;20238;-78
2022/10/15 08:25:25;;;;;;;0.00;0.00;;;;;;;17.73;80.42;97356.88;8415840;28;20226;-79
2022/10/15 08:29:28;;;;;;;0.00;0.00;;;;;;;17.76;79.65;97367.09;8415384;28;20239;-79
2022/10/15 08:33:33;;;;;;;0.00;0.00;;;;;;;17.70;80.18;97371.03;8415556;28;20235;-78
2022/10/15 08:37:35;;;;;;;0.00;0.00;;;;;;;17.72;80.05;97369.13;8415130;28;20231;-79
2022/10/15 08:41:40;;;;;;;0.00;0.00;;;;;;;17.77;80.22;97377.44;8415516;28;20309;-78
2022/10/15 08:45:45;;;;;;;0.00;0.00;;;;;;;17.82;80.28;97389.31;8415222;28;20241;-79
2022/10/15 08:49:50;;;;;;;0.00;0.00;;;;;;;17.85;79.54;97382.06;8415023;28;20229;-76
2022/10/15 08:53:56;;;;;;;0.00;0.00;;;;;;;17.91;79.57;97394.63;8415138;28;20312;-79
2022/10/15 08:58:02;;;;;;;0.00;0.00;;;;;;;17.87;80.21;97395.84;8414989;28;20235;-77
2022/10/15 09:02:12;;;;;;;0.00;0.00;;;;;;;17.84;79.82;97393.50;8415087;28;20269;-77
2022/10/15 09:06:20;;;;;;;0.00;0.00;;;;;;;17.87;79.44;97403.72;8414238;28;20431;-77
2022/10/15 09:10:30;;;;;;;0.00;0.00;;;;;;;17.96;78.67;97410.81;8414447;28;20239;-78
2022/10/15 09:14:36;;;;;;;0.00;0.00;;;;;;;18.03;78.90;97412.91;8414151;28;20239;-79
2022/10/15 09:18:42;;;;;;;0.00;0.00;;;;;;;18.16;79.05;97411.78;8414525;28;20577;-76
2022/10/15 09:22:50;;;;;;;0.00;0.00;;;;;;;18.33;77.49;97414.75;8414207;28;20235;-78
2022/10/15 09:26:59;;;;;;;0.00;0.00;;;;;;;18.33;77.99;97409.50;8414392;28;20220;-79
2022/10/15 09:31:02;;;;;;;0.00;0.00;;;;;;;18.35;77.30;97418.91;8414287;28;20236;-78
2022/10/15 09:35:13;;;;;;;0.00;0.00;;;;;;;18.43;77.28;97426.13;8414285;28;20228;-78
2022/10/15 09:39:43;;;;;;;0.00;0.00;;;;;;;18.43;77.65;97428.75;8413515;28;20224;-77
2022/10/15 09:43:49;;;;;;;0.00;0.00;;;;;;;18.39;76.75;97439.63;8414007;28;20231;-77
2022/10/15 09:47:52;;;;;;;0.00;0.00;;;;;;;18.42;77.27;97444.59;8413617;28;20287;-78
2022/10/15 09:52:03;;;;;;;0.00;0.00;;;;;;;18.33;77.35;97449.69;8413587;28;20232;-78
2022/10/15 09:56:12;;;;;;;0.00;0.00;;;;;;;18.31;77.01;97445.50;8413789;28;20242;-76
2022/10/15 10:00:15;;;;;;;0.00;0.00;;;;;;;18.23;76.89;97453.19;8413288;28;20232;-77
2022/10/15 10:04:20;;;;;;;0.00;0.00;;;;;;;18.26;76.53;97452.91;8412884;28;20236;-78
2022/10/15 10:08:25;;;;;;;0.00;0.00;;;;;;;18.40;76.58;97454.41;8413301;28;20232;-78
2022/10/15 10:12:32;;;;;;;0.00;0.00;;;;;;;18.39;76.68;97464.06;8413212;28;20238;-78
2022/10/15 10:16:35;;;;;;;0.00;0.00;;;;;;;18.45;76.16;97470.53;8413200;28;20232;-78
2022/10/15 10:20:52;;;;;;;0.00;0.00;;;;;;;18.50;76.38;97463.94;8413440;28;20536;-77
2022/10/15 10:24:55;;;;;;;0.00;0.00;;;;;;;18.62;76.02;97472.59;8413193;28;20228;-77
2022/10/15 10:28:59;;;;;;;0.00;0.00;;;;;;;18.70;75.36;97470.13;8413219;28;20239;-77
2022/10/15 10:33:25;;;;;;;0.00;0.00;;;;;;;18.63;75.03;97468.19;8412594;28;20318;-78
2022/10/15 10:37:28;;;;;;;0.00;0.00;;;;;;;18.80;74.72;97470.22;8413021;28;20225;-80
2022/10/15 10:41:51;;;;;;;0.00;0.00;;;;;;;19.04;73.42;97471.66;8413660;28;20240;-79
2022/10/15 10:46:00;;;;;;;0.00;0.00;;;;;;;19.18;72.05;97476.56;8419167;28;20230;-80
2022/10/15 10:50:04;;;;;;;0.00;0.00;;;;;;;19.33;72.55;97475.22;8418819;28;20562;-80
2022/10/15 10:54:13;;;;;;;0.00;0.00;;;;;;;19.24;72.82;97477.81;8418648;28;20234;-75
2022/10/15 10:58:19;;;;;;;0.00;0.00;;;;;;;19.16;73.03;97480.28;8418274;28;20225;-81
2022/10/15 11:02:29;;;;;;;0.00;0.00;;;;;;;19.13;72.18;97482.22;8418620;28;20297;-79
2022/10/15 11:06:42;;;;;;;0.00;0.00;;;;;;;19.22;72.16;97487.63;8418488;28;20248;-79
2022/10/15 11:10:50;;;;;;;0.00;0.00;;;;;;;19.25;71.49;97482.94;8418843;28;20240;-77
2022/10/15 11:14:56;;;;;;;0.00;0.00;;;;;;;19.32;72.22;97491.94;8418137;28;20229;-83
2022/10/15 11:19:10;;;;;;;0.00;0.00;;;;;;;19.67;71.15;97489.78;8417920;28;20229;-76
2022/10/15 11:23:40;;;;;;;0.00;0.00;;;;;;;19.84;69.01;97494.41;8417577;28;20413;-76
2022/10/15 11:27:53;;;;;;;0.00;0.00;;;;;;;20.05;68.81;97496.06;8417675;28;20226;-76
2022/10/15 11:32:03;;;;;;;0.00;0.00;;;;;;;19.85;68.74;97490.78;8417396;28;20287;-76
2022/10/15 11:36:36;;;;;;;0.00;0.00;;;;;;;19.66;68.96;97496.81;8416874;28;20619;-76
2022/10/15 11:40:49;;;;;;;0.00;0.00;;;;;;;19.62;68.89;97492.81;8417342;28;20238;-76
2022/10/15 11:45:03;;;;;;;0.00;0.00;;;;;;;19.60;67.37;97486.88;8417133;28;20279;-76
2022/10/15 11:49:21;;;;;;;0.00;0.00;;;;;;;19.71;67.31;97491.19;8416716;28;20229;-76
2022/10/15 11:53:46;;;;;;;0.00;0.00;;;;;;;19.56;66.40;97480.22;8415420;28;20226;-75
2022/10/15 11:57:51;;;;;;;0.00;0.00;;;;;;;19.30;67.44;97479.91;8416609;28;20230;-75
2022/10/15 12:01:56;;;;;;;0.00;0.00;;;;;;;19.38;68.08;97479.22;8416450;28;20229;-76
2022/10/15 12:06:02;;;;;;;0.00;0.00;;;;;;;19.22;67.91;97485.81;8416568;28;20229;-76
2022/10/15 12:10:17;;;;;;;0.00;0.00;;;;;;;19.30;68.14;97493.84;8416079;28;20287;-76
2022/10/15 12:14:27;;;;;;;0.00;0.00;;;;;;;19.11;68.56;97480.69;8415514;28;20404;-75
2022/10/15 12:18:34;;;;;;;0.00;0.00;;;;;;;19.16;69.06;97478.50;8415302;28;20241;-76
2022/10/15 12:22:39;;;;;;;0.00;0.00;;;;;;;19.38;68.64;97468.72;8415934;28;20233;-75
2022/10/15 12:26:44;;;;;;;0.00;0.00;;;;;;;20.00;68.24;97469.34;8415546;28;20221;-75
2022/10/15 12:31:01;;;;;;;0.00;0.00;;;;;;;19.52;68.63;97468.34;8414562;28;20247;-76
2022/10/15 12:35:06;;;;;;;0.00;0.00;;;;;;;19.38;68.60;97461.69;8415453;28;20234;-76
2022/10/15 12:39:23;;;;;;;0.00;0.00;;;;;;;19.34;68.33;97463.75;8415227;28;20225;-74
2022/10/15 12:43:53;;;;;;;0.00;0.00;;;;;;;19.34;68.46;97463.75;8415356;28;20329;-75
2022/10/15 12:48:12;;;;;;;0.00;0.00;;;;;;;19.39;69.08;97473.03;8415312;28;20225;-78
2022/10/15 12:52:52;;;;;;;0.00;0.00;;;;;;;19.42;69.59;97472.72;8418112;28;20233;-76
2022/10/15 12:56:56;;;;;;;0.00;0.00;;;;;;;19.10;70.53;97471.16;8414430;28;20236;-77
2022/10/15 13:01:06;;;;;;;0.00;0.00;;;;;;;19.48;69.64;97461.72;8414524;28;20246;-79
2022/10/15 13:05:24;;;;;;;0.00;0.00;;;;;;;18.99;70.04;97471.25;8414629;28;20422;-79
2022/10/15 13:09:29;;;;;;;0.00;0.00;;;;;;;19.04;70.62;97461.16;8414333;28;20436;-81
2022/10/15 13:13:34;;;;;;;0.00;0.00;;;;;;;19.25;70.33;97464.56;8414357;28;20550;-80
2022/10/15 13:17:39;;;;;;;0.00;0.00;;;;;;;19.53;71.17;97467.34;8414463;28;20229;-79
2022/10/15 13:21:50;;;;;;;0.00;0.00;;;;;;;19.45;70.17;97465.41;8414489;28;20235;-81
2022/10/15 13:25:54;;;;;;;0.00;0.00;;;;;;;19.38;71.85;97458.22;8414817;28;20233;-82
2022/10/15 13:29:58;;;;;;;0.00;0.00;;;;;;;19.57;71.17;97466.13;8415134;28;20456;-80
2022/10/15 13:34:18;;;;;;;0.00;0.00;;;;;;;19.67;71.27;97477.47;8416353;28;20229;-80
2022/10/15 13:38:22;;;;;;;0.00;0.00;;;;;;;20.39;68.83;97462.25;8416850;28;20241;-79
2022/10/15 13:42:26;;;;;;;0.00;0.00;;;;;;;20.83;66.54;97454.66;8417880;28;20234;-80
2022/10/15 13:46:31;;;;;;;0.00;0.00;;;;;;;20.32;66.96;97453.25;8417500;28;20229;-81
2022/10/15 13:50:36;;;;;;;0.00;0.00;;;;;;;20.31;67.59;97462.13;8414458;28;20596;-81
2022/10/15 13:54:41;;;;;;;0.00;0.00;;;;;;;20.83;64.80;97456.47;8415023;28;20219;-81
2022/10/15 13:58:47;;;;;;;0.00;0.00;;;;;;;20.91;62.73;97442.59;8413638;28;20234;-80
2022/10/15 14:03:08;;;;;;;0.00;0.00;;;;;;;21.18;63.25;97436.47;8413820;28;20238;-80
2022/10/15 14:07:22;;;;;;;0.00;0.00;;;;;;;20.83;63.13;97449.41;8413253;28;20231;-81
2022/10/15 14:11:26;;;;;;;0.00;0.00;;;;;;;20.42;64.18;97467.22;8413306;28;20235;-81
2022/10/15 14:15:44;;;;;;;0.00;0.00;;;;;;;20.10;64.63;97465.75;8413084;28;20292;-80
2022/10/15 14:19:49;;;;;;;0.00;0.00;;;;;;;20.02;65.41;97472.69;8419415;28;20233;-81
2022/10/15 14:24:15;;;;;;;0.00;0.00;;;;;;;19.89;65.51;97473.78;8419882;28;20508;-80
2022/10/15 14:28:21;;;;;;;0.00;0.00;;;;;;;19.89;65.05;97467.69;8419523;28;20229;-80
2022/10/15 14:32:25;;;;;;;0.00;0.00;;;;;;;20.01;65.57;97476.25;8419398;28;20229;-84
2022/10/15 14:36:30;;;;;;;0.00;0.00;;;;;;;19.89;65.11;97472.94;8418976;28;20242;-75
2022/10/15 14:40:34;;;;;;;0.00;0.00;;;;;;;19.79;65.58;97475.56;8418936;28;20537;-75
2022/10/15 14:44:41;;;;;;;0.00;0.00;;;;;;;19.67;66.02;97474.03;8418263;28;20229;-78
2022/10/15 14:48:45;;;;;;;0.00;0.00;;;;;;;19.62;65.39;97463.09;8419147;28;20245;-78
2022/10/15 14:52:49;;;;;;;0.00;0.00;;;;;;;19.80;65.48;97468.53;8418561;28;20240;-76
2022/10/15 14:56:53;;;;;;;0.00;0.00;;;;;;;19.81;65.31;97468.38;8418829;28;20229;-78
2022/10/15 15:00:57;;;;;;;0.00;0.00;;;;;;;19.66;65.56;97478.44;8418516;28;20240;-75
2022/10/15 15:05:09;;;;;;;0.00;0.00;;;;;;;19.59;65.08;97479.97;8418556;28;20233;-76
2022/10/15 15:09:11;;;;;;;0.00;0.00;;;;;;;19.58;66.25;97480.91;8418129;28;20238;-77
2022/10/15 15:13:21;;;;;;;0.00;0.00;;;;;;;19.50;65.53;97473.72;8417047;28;20227;-74
2022/10/15 15:17:25;;;;;;;0.00;0.00;;;;;;;19.42;66.51;97464.84;8418118;28;20276;-73
2022/10/15 15:21:28;;;;;;;0.00;0.00;;;;;;;19.30;66.86;97466.78;8417807;28;20238;-74
2022/10/15 15:25:32;;;;;;;0.00;0.00;;;;;;;19.26;66.47;97463.59;8417662;28;20397;-75
2022/10/15 15:29:36;;;;;;;0.00;0.00;;;;;;;19.26;67.09;97474.09;8417156;28;20225;-75
2022/10/15 15:33:40;;;;;;;0.00;0.00;;;;;;;19.22;67.37;97467.44;8417384;28;20521;-75
2022/10/15 15:37:50;;;;;;;0.00;0.00;;;;;;;19.24;67.54;97460.25;8417281;28;20252;-72
2022/10/15 15:41:52;;;;;;;0.00;0.00;;;;;;;19.23;67.86;97482.25;8417149;28;20268;-76
2022/10/15 15:45:56;;;;;;;0.00;0.00;;;;;;;19.23;67.72;97484.88;8417160;28;20232;-79
2022/10/15 15:49:59;;;;;;;0.00;0.00;;;;;;;19.21;68.05;97492.06;8417083;28;20411;-78
2022/10/15 15:54:05;;;;;;;0.00;0.00;;;;;;;19.22;68.17;97493.69;8416780;28;20233;-79
2022/10/15 15:58:07;;;;;;;0.00;0.00;;;;;;;19.20;68.67;97494.81;8416702;28;20280;-87
2022/10/15 16:02:11;;;;;;;0.00;0.00;;;;;;;19.13;68.61;97490.09;8416530;28;20232;-77
2022/10/15 16:06:14;;;;;;;0.00;0.00;;;;;;;19.11;68.77;97496.41;8415744;28;20250;-76
2022/10/15 16:10:18;;;;;;;0.00;0.00;;;;;;;18.99;69.06;97493.06;8416275;28;20416;-77
2022/10/15 16:14:21;;;;;;;0.00;0.00;;;;;;;19.07;69.16;97500.28;8416200;28;20236;-76
2022/10/15 16:18:25;;;;;;;0.00;0.00;;;;;;;19.01;69.07;97503.44;8416092;28;20517;-76
2022/10/15 16:22:27;;;;;;;0.00;0.00;;;;;;;19.03;68.86;97512.81;8414948;28;20241;-77
2022/10/15 16:26:30;;;;;;;0.00;0.00;;;;;;;18.93;69.58;97511.97;8415875;28;20233;-76
2022/10/15 16:30:33;;;;;;;0.00;0.00;;;;;;;18.92;69.62;97510.28;8415887;28;20438;-77
2022/10/15 16:34:37;;;;;;;0.00;0.00;;;;;;;18.91;69.33;97512.09;8415442;28;20233;-75
2022/10/15 16:38:40;;;;;;;0.00;0.00;;;;;;;18.92;69.60;97520.78;8415354;28;20226;-75
2022/10/15 16:42:43;;;;;;;0.00;0.00;;;;;;;18.86;69.48;97522.13;8415040;28;20248;-74
2022/10/15 16:46:46;;;;;;;0.00;0.00;;;;;;;18.84;69.69;97539.81;8415103;28;20229;-74
2022/10/15 16:50:58;;;;;;;0.00;0.00;;;;;;;18.90;69.28;97538.47;8415155;28;20236;-75
2022/10/15 16:55:01;;;;;;;0.00;0.00;;;;;;;18.87;69.52;97547.44;8415144;28;20237;-73
2022/10/15 16:59:04;;;;;;;0.00;0.00;;;;;;;18.83;69.77;97548.66;8414749;28;20231;-75
2022/10/15 17:03:07;;;;;;;0.00;0.00;;;;;;;18.77;68.84;97559.63;8414560;28;20232;-74
2022/10/15 17:07:11;;;;;;;0.00;0.00;;;;;;;18.80;69.53;97556.78;8414680;28;20233;-81
2022/10/15 17:11:16;;;;;;;0.00;0.00;;;;;;;18.80;69.02;97554.16;8414216;28;20248;-73
2022/10/15 17:15:18;;;;;;;0.00;0.00;;;;;;;18.79;68.92;97562.97;8414047;28;20243;-74
2022/10/15 17:19:24;;;;;;;0.00;0.00;;;;;;;18.73;68.72;97569.56;8413969;28;20228;-74
2022/10/15 17:23:33;;;;;;;0.00;0.00;;;;;;;18.65;68.95;97571.97;8413922;28;20233;-74
2022/10/15 17:27:36;;;;;;;0.00;0.00;;;;;;;18.68;69.27;97578.78;8413717;28;20228;-72
2022/10/15 17:31:39;;;;;;;0.00;0.00;;;;;;;18.65;69.26;97582.47;8413648;28;20244;-72
2022/10/15 17:35:41;;;;;;;0.00;0.00;;;;;;;18.63;68.57;97596.66;8413630;28;20285;-74
2022/10/15 17:39:46;;;;;;;0.00;0.00;;;;;;;18.60;68.39;97610.03;8413622;28;20236;-74
2022/10/15 17:43:49;;;;;;;0.00;0.00;;;;;;;18.50;68.77;97609.97;8413472;28;20239;-73
2022/10/15 17:47:52;;;;;;;0.00;0.00;;;;;;;18.53;68.74;97617.59;8413274;28;20229;-74
2022/10/15 17:51:54;;;;;;;0.00;0.00;;;;;;;18.52;68.98;97616.75;8412409;28;20298;-74
2022/10/15 17:56:00;;;;;;;0.00;0.00;;;;;;;18.51;68.45;97617.69;8413237;28;20232;-74
2022/10/15 18:00:10;;;;;;;0.00;0.00;;;;;;;18.50;69.21;97615.19;8413277;28;20225;-75
2022/10/15 18:04:12;;;;;;;0.00;0.00;;;;;;;18.51;68.57;97612.47;8412871;28;20250;-74
2022/10/15 18:08:15;;;;;;;0.00;0.00;;;;;;;18.50;68.65;97620.44;8412667;28;20227;-76
2022/10/15 18:12:19;;;;;;;0.00;0.00;;;;;;;18.51;68.40;97614.25;8412732;28;20245;-73
2022/10/15 18:16:23;;;;;;;0.00;0.00;;;;;;;18.42;68.93;97612.38;8412787;28;20405;-76
2022/10/15 18:20:26;;;;;;;0.00;0.00;;;;;;;18.47;68.68;97618.91;8412831;28;20238;-73
2022/10/15 18:24:28;;;;;;;0.00;0.00;;;;;;;18.43;68.99;97632.38;8413009;28;20274;-73
2022/10/15 18:28:35;;;;;;;0.00;0.00;;;;;;;18.47;68.91;97625.97;8412827;28;20238;-73
2022/10/15 18:32:38;;;;;;;0.00;0.00;;;;;;;18.46;68.52;97632.97;8412907;28;20239;-73
2022/10/15 18:36:42;;;;;;;0.00;0.00;;;;;;;18.40;68.75;97633.47;8412639;28;20247;-72
2022/10/15 18:40:45;;;;;;;0.00;0.00;;;;;;;18.41;69.23;97635.16;8412340;28;20290;-75
2022/10/15 18:44:50;;;;;;;0.00;0.00;;;;;;;18.38;69.43;97632.78;8412534;28;20239;-73
2022/10/15 18:48:52;;;;;;;0.00;0.00;;;;;;;18.46;69.19;97637.38;8412196;28;20237;-72
2022/10/15 18:52:55;;;;;;;0.00;0.00;;;;;;;18.42;69.77;97639.44;8412286;28;20240;-75
2022/10/15 18:56:58;;;;;;;0.00;0.00;;;;;;;18.38;69.79;97638.00;8412298;28;20225;-75
2022/10/15 19:01:10;;;;;;;0.00;0.00;;;;;;;18.42;69.38;97639.44;8412269;28;20576;-73
2022/10/15 19:05:13;;;;;;;0.00;0.00;;;;;;;18.33;69.70;97630.53;8416797;28;20229;-81
2022/10/15 19:09:18;;;;;;;0.00;0.00;;;;;;;18.27;70.17;97633.63;8417443;28;20229;-81
2022/10/15 19:13:20;;;;;;;0.00;0.00;;;;;;;18.33;69.55;97643.66;8418047;28;20256;-90
2022/10/15 19:17:25;;;;;;;0.00;0.00;;;;;;;18.31;69.76;97650.78;8417873;28;20397;-88